Time;durP1;ratioP1;P1;durP2;ratioP2;P2;SDS_P1;SDS_P2;PMS_P1;PMS_P2;Temp;Humidity;BMP_temperature;BMP_pressure;BME280_temperature;BME280_humidity;BME280_pressure;Samples;Min_cycle;Max_cycle;Signal;HPM_P1;HPM_P2
2022/10/04 00:02:22;;;;;;;10.37;2.90;;;11.40;99.90;;;;;;2603228;54;20033;31
2022/10/04 00:05:02;;;;;;;13.07;3.10;;;11.40;99.90;;;;;;2701589;39;20459;31
2022/10/04 00:07:39;;;;;;;7.60;2.50;;;11.40;99.90;;;;;;2621632;46;19934;31
2022/10/04 00:10:19;;;;;;;13.05;3.15;;;11.40;99.90;;;;;;2701367;39;20477;31
2022/10/04 00:12:54;;;;;;;7.10;2.15;;;11.40;99.90;;;;;;2603237;54;19954;31
2022/10/04 00:15:29;;;;;;;7.15;2.28;;;11.40;99.90;;;;;;2603065;54;20549;31
2022/10/04 00:18:09;;;;;;;9.50;2.38;;;11.40;99.90;;;;;;2603167;54;20042;31
2022/10/04 00:21:02;;;;;;;12.52;2.20;;;11.40;99.90;;;;;;2603216;54;20034;31
2022/10/04 00:23:48;;;;;;;8.18;2.95;;;11.30;99.90;;;;;;2603411;54;20029;31
2022/10/04 00:26:52;;;;;;;9.87;2.03;;;11.40;99.90;;;;;;2602782;54;20026;31
2022/10/04 00:29:33;;;;;;;11.00;3.50;;;11.30;99.90;;;;;;2603086;54;20260;31
2022/10/04 00:32:26;;;;;;;6.95;1.88;;;11.30;99.90;;;;;;2602979;54;20049;31
2022/10/04 00:35:01;;;;;;;10.63;2.10;;;11.30;99.90;;;;;;2603134;54;20022;31
2022/10/04 00:37:58;;;;;;;11.90;2.53;;;11.40;99.90;;;;;;2603111;54;20320;31
2022/10/04 00:40:35;;;;;;;22.52;2.42;;;11.30;99.90;;;;;;2603238;54;20947;31
2022/10/04 00:43:12;;;;;;;11.90;2.40;;;11.30;99.90;;;;;;2603031;54;20904;31
2022/10/04 00:45:47;;;;;;;9.40;2.10;;;11.30;99.90;;;;;;2603036;54;20826;31
2022/10/04 00:48:35;;;;;;;8.65;1.98;;;11.20;99.90;;;;;;2615279;47;20077;31
2022/10/04 00:51:16;;;;;;;8.40;2.00;;;11.20;99.90;;;;;;2603287;54;20577;31
2022/10/04 00:53:57;;;;;;;10.37;2.17;;;11.20;99.90;;;;;;2603021;54;20061;31
2022/10/04 00:56:30;;;;;;;10.68;2.50;;;11.10;99.90;;;;;;2603065;54;20909;31
2022/10/04 00:59:28;;;;;;;10.40;2.20;;;11.10;99.90;;;;;;2621646;47;20847;31
2022/10/04 01:02:02;;;;;;;14.83;3.10;;;11.00;99.90;;;;;;2602909;54;20027;31
2022/10/04 01:04:45;;;;;;;11.70;2.70;;;11.00;99.90;;;;;;2621282;47;20054;31
2022/10/04 01:07:21;;;;;;;9.95;2.25;;;11.00;99.90;;;;;;2603132;54;20023;31
2022/10/04 01:10:00;;;;;;;8.70;2.65;;;10.90;99.90;;;;;;2603776;47;20026;31
2022/10/04 01:12:39;;;;;;;10.13;2.22;;;11.00;99.90;;;;;;2602904;54;20577;31
2022/10/04 01:17:47;;;;;;;12.48;2.38;;;10.90;99.90;;;;;;2602885;54;20932;31
2022/10/04 01:20:31;;;;;;;9.30;2.75;;;10.80;99.90;;;;;;2602865;54;20038;31
2022/10/04 01:23:09;;;;;;;17.02;3.13;;;10.80;99.90;;;;;;2621713;47;20881;31
2022/10/04 01:25:48;;;;;;;11.57;2.20;;;10.80;99.90;;;;;;2602992;54;20026;31
2022/10/04 01:28:23;;;;;;;13.50;2.58;;;10.80;99.90;;;;;;2602869;54;20027;31
2022/10/04 01:30:57;;;;;;;10.10;2.55;;;10.80;99.90;;;;;;2602950;54;20057;31
2022/10/04 01:33:33;;;;;;;13.57;2.28;;;10.70;99.90;;;;;;2602732;54;20034;31
2022/10/04 01:36:08;;;;;;;12.82;2.55;;;10.70;99.90;;;;;;2620933;47;20104;31
2022/10/04 01:38:45;;;;;;;15.85;2.40;;;10.70;99.90;;;;;;2603500;54;20018;31
2022/10/04 01:41:24;;;;;;;12.00;2.47;;;10.70;99.90;;;;;;2603738;54;20765;31
2022/10/04 01:44:03;;;;;;;14.32;2.88;;;10.70;99.90;;;;;;2603711;54;20109;31
2022/10/04 01:46:38;;;;;;;11.70;3.07;;;10.70;99.90;;;;;;2603453;54;20026;31
2022/10/04 01:49:14;;;;;;;12.90;2.40;;;10.70;99.90;;;;;;2603557;54;20796;31
2022/10/04 01:51:53;;;;;;;14.90;2.53;;;10.50;99.90;;;;;;2603712;54;20902;31
2022/10/04 01:54:35;;;;;;;9.90;2.08;;;10.60;99.90;;;;;;2603648;54;20007;31
2022/10/04 01:59:44;;;;;;;14.18;2.45;;;10.70;99.90;;;;;;2603562;54;20027;31
2022/10/04 02:02:23;;;;;;;13.68;2.38;;;10.70;99.90;;;;;;2603375;54;20949;31
2022/10/04 02:04:58;;;;;;;10.27;2.30;;;10.70;99.90;;;;;;2603572;54;20022;31
2022/10/04 02:07:33;;;;;;;16.00;3.47;;;10.70;99.90;;;;;;2603106;54;20113;31
2022/10/04 02:10:12;;;;;;;12.93;2.40;;;10.70;99.90;;;;;;2603587;54;20646;31
2022/10/04 02:12:47;;;;;;;9.00;2.03;;;10.70;99.90;;;;;;2603477;54;20027;31
2022/10/04 02:15:21;;;;;;;13.05;2.25;;;10.70;99.90;;;;;;2603499;54;20088;31
2022/10/04 02:17:55;;;;;;;12.98;2.92;;;10.70;99.90;;;;;;2603526;54;20109;31
2022/10/04 02:20:29;;;;;;;9.75;2.20;;;10.70;99.90;;;;;;2603883;54;20741;31
2022/10/04 02:23:03;;;;;;;11.63;1.90;;;10.70;99.90;;;;;;2621633;46;20022;31
2022/10/04 02:25:40;;;;;;;11.73;3.20;;;10.70;99.90;;;;;;2603510;54;20052;31
2022/10/04 02:28:15;;;;;;;8.18;1.98;;;10.70;99.90;;;;;;2603659;54;20251;31
2022/10/04 02:32:56;;;;;;;14.70;2.50;;;10.70;99.90;;;;;;2603322;54;20903;31
2022/10/04 02:33:44;;;;;;;12.97;2.23;;;10.70;99.90;;;;;;2603549;54;20033;31
2022/10/04 02:36:18;;;;;;;15.13;2.40;;;10.70;99.90;;;;;;2621800;46;20802;31
2022/10/04 02:38:55;;;;;;;11.95;2.30;;;10.70;99.90;;;;;;2622343;46;20871;31
2022/10/04 02:41:34;;;;;;;8.52;2.17;;;10.70;99.90;;;;;;2621756;46;20030;31
2022/10/04 02:44:12;;;;;;;12.53;2.53;;;10.60;99.90;;;;;;2603554;54;20913;31
2022/10/04 02:46:48;;;;;;;11.10;3.05;;;10.60;99.90;;;;;;2603513;54;20928;31
2022/10/04 02:49:27;;;;;;;11.20;2.80;;;10.70;99.90;;;;;;2603145;54;20878;31
2022/10/04 02:52:03;;;;;;;13.40;2.65;;;10.50;99.90;;;;;;2603377;54;20038;31
2022/10/04 02:54:39;;;;;;;11.20;2.60;;;10.50;99.90;;;;;;2603336;54;20936;31
2022/10/04 02:57:20;;;;;;;;;;;10.50;99.90;;;;;;2622106;46;20112;31
2022/10/04 03:00:03;;;;;;;13.82;3.30;;;10.50;99.90;;;;;;2603426;54;19940;31
2022/10/04 03:02:38;;;;;;;11.77;2.67;;;10.50;99.90;;;;;;2603582;54;20026;31
2022/10/04 03:05:13;;;;;;;12.50;3.80;;;10.40;99.90;;;;;;2603426;54;20052;31
2022/10/04 03:07:50;;;;;;;13.75;2.90;;;10.40;99.90;;;;;;2603332;54;20896;31
2022/10/04 03:10:24;;;;;;;11.88;3.50;;;10.50;99.90;;;;;;2603544;54;20026;31
2022/10/04 03:13:01;;;;;;;13.25;2.97;;;10.40;99.90;;;;;;2603149;54;20086;31
2022/10/04 03:15:34;;;;;;;17.17;3.60;;;10.40;99.90;;;;;;2603284;54;20033;31
2022/10/04 03:18:08;;;;;;;10.90;2.60;;;10.40;99.90;;;;;;2603316;54;20262;31
2022/10/04 03:20:42;;;;;;;12.00;4.80;;;10.30;99.90;;;;;;2603233;54;20844;31
2022/10/04 03:23:16;;;;;;;18.05;3.70;;;10.50;99.90;;;;;;2603320;54;20049;31
2022/10/04 03:25:53;;;;;;;11.20;3.28;;;10.50;99.90;;;;;;2603055;54;20034;31
2022/10/04 03:28:32;;;;;;;8.32;2.20;;;10.30;99.90;;;;;;2603582;54;20049;31
2022/10/04 03:31:07;;;;;;;15.95;3.10;;;10.40;99.90;;;;;;2603303;54;20046;31
2022/10/04 03:33:41;;;;;;;12.77;2.73;;;10.30;99.90;;;;;;2603145;54;20034;31
2022/10/04 03:36:16;;;;;;;11.85;2.70;;;10.30;99.90;;;;;;2603291;54;19938;31
2022/10/04 03:38:50;;;;;;;13.63;2.67;;;10.30;99.90;;;;;;2603302;54;20038;31
2022/10/04 03:41:24;;;;;;;7.32;2.78;;;10.30;99.90;;;;;;2603212;54;20158;31
2022/10/04 03:44:01;;;;;;;15.40;3.30;;;10.30;99.90;;;;;;2603481;54;20872;31
2022/10/04 03:46:39;;;;;;;12.25;2.90;;;10.30;99.90;;;;;;2603329;54;20053;31
2022/10/04 03:49:14;;;;;;;15.65;3.15;;;10.30;99.90;;;;;;2603382;54;20943;31
2022/10/04 03:51:51;;;;;;;16.03;2.97;;;10.30;99.90;;;;;;2603567;54;20034;31
2022/10/04 03:54:26;;;;;;;11.85;3.30;;;10.30;99.90;;;;;;2603280;54;20800;31
2022/10/04 03:57:00;;;;;;;10.67;2.70;;;10.30;99.90;;;;;;2622173;46;20838;31
2022/10/04 03:59:37;;;;;;;14.05;2.65;;;10.20;99.90;;;;;;2621574;46;20126;31
2022/10/04 04:02:15;;;;;;;12.45;3.15;;;10.20;99.90;;;;;;2603094;54;20946;31
2022/10/04 04:04:54;;;;;;;11.85;2.90;;;10.20;99.90;;;;;;2603288;54;20164;31
2022/10/04 04:07:31;;;;;;;10.77;3.15;;;10.20;99.90;;;;;;2603314;54;20888;31
2022/10/04 04:10:07;;;;;;;10.40;3.10;;;10.20;99.90;;;;;;2603402;54;20788;31
2022/10/04 04:12:49;;;;;;;9.35;3.20;;;10.20;99.90;;;;;;2603180;54;20046;31
2022/10/04 04:15:25;;;;;;;;;;;10.20;99.90;;;;;;2603308;54;20874;31
2022/10/04 04:18:00;;;;;;;15.27;3.65;;;10.20;99.90;;;;;;2621596;46;19946;31
2022/10/04 04:20:35;;;;;;;11.47;3.37;;;10.10;99.90;;;;;;2602995;54;20897;31
2022/10/04 04:23:14;;;;;;;9.73;2.53;;;10.10;99.90;;;;;;2602685;54;19935;31
2022/10/04 04:25:49;;;;;;;10.13;2.57;;;10.10;99.90;;;;;;2604029;46;20052;31
2022/10/04 04:28:26;;;;;;;22.07;3.63;;;10.10;99.90;;;;;;2602965;54;20042;31
2022/10/04 04:31:06;;;;;;;8.63;2.93;;;10.10;99.90;;;;;;2603059;54;20053;31
2022/10/04 04:33:45;;;;;;;9.47;2.90;;;10.00;99.90;;;;;;2603060;54;19934;31
2022/10/04 04:36:19;;;;;;;11.48;2.67;;;10.10;99.90;;;;;;2603170;54;20041;31
2022/10/04 04:41:39;;;;;;;11.55;2.75;;;10.00;99.90;;;;;;2603309;54;20135;31
2022/10/04 04:44:18;;;;;;;16.30;3.30;;;10.10;99.90;;;;;;2602980;54;20027;31
2022/10/04 04:46:59;;;;;;;17.08;3.80;;;10.20;99.90;;;;;;2621534;47;20049;31
2022/10/04 04:49:33;;;;;;;12.75;3.42;;;10.00;99.90;;;;;;2602888;54;20894;31
2022/10/04 04:52:07;;;;;;;9.70;2.47;;;10.00;99.90;;;;;;2603186;54;20798;31
2022/10/04 04:54:42;;;;;;;12.63;3.25;;;10.00;99.90;;;;;;2603162;54;20053;31
2022/10/04 04:57:26;;;;;;;11.95;3.00;;;10.00;99.90;;;;;;2603013;54;20811;31
2022/10/04 05:00:01;;;;;;;8.10;2.55;;;10.00;99.90;;;;;;2603088;54;20750;31
2022/10/04 05:02:38;;;;;;;9.70;2.70;;;10.00;99.90;;;;;;2602885;54;20959;31
2022/10/04 05:05:19;;;;;;;18.60;3.65;;;10.10;99.90;;;;;;2603186;54;20797;31
2022/10/04 05:07:53;;;;;;;10.95;2.72;;;9.90;99.90;;;;;;2602828;54;20852;31
2022/10/04 05:10:32;;;;;;;12.05;3.60;;;10.00;99.90;;;;;;2602980;54;20112;31
2022/10/04 05:13:09;;;;;;;7.13;2.63;;;10.00;99.90;;;;;;2603716;54;20022;31
2022/10/04 05:15:44;;;;;;;11.45;2.58;;;10.00;99.90;;;;;;2603828;54;20884;31
2022/10/04 05:18:34;;;;;;;12.60;3.17;;;10.00;99.90;;;;;;2621972;46;20878;31
2022/10/04 05:21:10;;;;;;;9.40;3.05;;;10.00;99.90;;;;;;2603741;54;20117;31
2022/10/04 05:23:44;;;;;;;17.25;3.92;;;10.00;99.90;;;;;;2603094;54;20920;31
2022/10/04 05:26:21;;;;;;;14.45;2.95;;;10.10;99.90;;;;;;2605483;46;20812;31
2022/10/04 05:29:00;;;;;;;11.87;3.17;;;10.00;99.90;;;;;;2614810;46;20046;31
2022/10/04 05:31:39;;;;;;;13.07;2.50;;;10.10;99.90;;;;;;2603926;54;20242;31
2022/10/04 05:34:24;;;;;;;15.55;3.30;;;10.10;99.90;;;;;;2603524;54;21200;31
2022/10/04 05:37:07;;;;;;;11.60;2.60;;;10.10;99.90;;;;;;2622258;46;20026;31
2022/10/04 05:39:45;;;;;;;12.40;2.60;;;10.10;99.90;;;;;;2603802;54;20254;31
2022/10/04 05:42:22;;;;;;;9.70;2.85;;;10.20;99.90;;;;;;2613229;46;20026;31
2022/10/04 05:44:56;;;;;;;11.05;2.55;;;10.20;99.90;;;;;;2617492;46;20993;31
2022/10/04 05:47:32;;;;;;;16.13;2.97;;;10.30;99.90;;;;;;2603496;54;20133;31
2022/10/04 05:50:16;;;;;;;12.15;2.22;;;10.30;99.90;;;;;;2603441;54;20154;31
2022/10/04 05:52:52;;;;;;;9.77;2.33;;;10.30;99.90;;;;;;2603876;54;20927;31
2022/10/04 05:55:30;;;;;;;13.82;2.60;;;10.30;99.90;;;;;;2603784;54;20789;31
2022/10/04 05:58:24;;;;;;;8.47;2.10;;;10.40;99.90;;;;;;2603526;54;20857;31
2022/10/04 06:01:12;;;;;;;10.32;1.75;;;10.90;99.90;;;;;;2603771;54;20809;31
2022/10/04 06:04:02;;;;;;;10.27;1.90;;;11.20;99.90;;;;;;2603591;54;20023;31
2022/10/04 06:06:41;;;;;;;10.20;2.10;;;11.70;99.90;;;;;;2603817;54;20026;31
2022/10/04 06:09:21;;;;;;;7.45;1.85;;;12.10;99.90;;;;;;2603483;54;20793;31
2022/10/04 06:12:01;;;;;;;8.77;2.37;;;12.40;99.90;;;;;;2622161;46;20076;31
2022/10/04 06:14:47;;;;;;;10.13;2.43;;;12.70;99.90;;;;;;2603450;54;20360;31
2022/10/04 06:17:46;;;;;;;10.13;2.03;;;13.00;99.90;;;;;;2603693;54;20069;31
2022/10/04 06:20:53;;;;;;;11.07;2.20;;;13.30;99.90;;;;;;2603141;54;20937;31
2022/10/04 06:23:30;;;;;;;;;;;13.60;99.90;;;;;;2603569;54;20018;31
2022/10/04 06:26:05;;;;;;;;;;;14.00;99.90;;;;;;2605163;46;19941;31
2022/10/04 06:28:42;;;;;;;7.40;2.20;;;14.40;99.90;;;;;;2603334;54;20757;31
2022/10/04 06:31:46;;;;;;;10.70;1.80;;;14.70;99.90;;;;;;2603866;54;20029;31
2022/10/04 06:34:43;;;;;;;8.10;1.85;;;14.90;99.90;;;;;;2603463;54;20994;31
2022/10/04 06:40:11;;;;;;;8.93;1.55;;;15.30;99.90;;;;;;2603353;54;19941;31
2022/10/04 06:42:56;;;;;;;9.30;1.80;;;15.30;99.90;;;;;;2603417;54;19941;31
2022/10/04 06:45:41;;;;;;;8.35;1.35;;;15.10;99.90;;;;;;2603713;54;20879;31
2022/10/04 06:48:46;;;;;;;10.70;1.90;;;14.90;99.90;;;;;;2603596;54;20081;31
2022/10/04 06:51:26;;;;;;;5.43;1.60;;;14.70;99.90;;;;;;2603093;54;20864;31
2022/10/04 06:54:04;;;;;;;8.88;1.85;;;14.50;99.90;;;;;;2603429;54;20057;31
2022/10/04 06:57:00;;;;;;;10.65;2.38;;;14.50;99.90;;;;;;2603295;54;20149;31
2022/10/04 06:59:41;;;;;;;10.10;2.30;;;14.30;99.90;;;;;;2603589;54;20022;31
2022/10/04 07:02:19;;;;;;;7.40;1.75;;;14.10;99.90;;;;;;2603500;54;20938;31
2022/10/04 07:04:57;;;;;;;10.10;2.22;;;14.10;99.90;;;;;;2621819;46;20030;31
2022/10/04 07:08:05;;;;;;;7.53;1.80;;;14.00;99.90;;;;;;2622109;46;20774;31
2022/10/04 07:10:47;;;;;;;8.97;2.00;;;14.10;99.90;;;;;;2603386;54;20038;31
2022/10/04 07:13:33;;;;;;;7.53;1.75;;;14.50;99.90;;;;;;2621860;46;19942;31
2022/10/04 07:16:08;;;;;;;8.70;2.00;;;14.90;99.90;;;;;;2603491;54;20026;31
2022/10/04 07:18:46;;;;;;;7.95;1.58;;;15.20;99.90;;;;;;2702102;39;22282;31
2022/10/04 07:21:20;;;;;;;10.07;1.48;;;15.70;99.90;;;;;;2603468;54;20081;31
2022/10/04 07:23:57;;;;;;;8.48;1.80;;;15.90;99.90;;;;;;2621554;46;20934;31
2022/10/04 07:26:35;;;;;;;9.70;1.65;;;16.40;99.90;;;;;;2603473;54;20852;31
2022/10/04 07:29:20;;;;;;;7.57;1.57;;;16.40;99.90;;;;;;2603222;54;20026;31
2022/10/04 07:34:29;;;;;;;5.22;1.33;;;16.50;99.90;;;;;;2603303;54;20120;31
2022/10/04 07:37:09;;;;;;;10.50;1.75;;;16.40;99.90;;;;;;2612968;46;20855;31
2022/10/04 07:39:49;;;;;;;11.47;1.50;;;16.70;99.90;;;;;;2603273;54;20072;31
2022/10/04 07:42:27;;;;;;;11.48;1.77;;;17.00;99.90;;;;;;2603415;54;21073;31
2022/10/04 07:45:14;;;;;;;8.45;1.90;;;17.20;99.90;;;;;;2603271;54;20906;31
2022/10/04 07:47:48;;;;;;;;;;;17.40;99.90;;;;;;2603562;54;20030;31
2022/10/04 07:50:25;;;;;;;5.10;1.17;;;17.60;99.90;;;;;;2621762;46;19934;31
2022/10/04 07:53:05;;;;;;;12.32;1.80;;;17.60;99.90;;;;;;2603363;54;19954;31
2022/10/04 07:55:43;;;;;;;8.65;1.50;;;17.90;99.90;;;;;;2621475;46;20832;31
2022/10/04 07:58:23;;;;;;;6.43;1.23;;;17.80;99.90;;;;;;2603117;54;20081;31
2022/10/04 08:00:58;;;;;;;8.10;1.38;;;17.60;99.90;;;;;;2603210;54;20271;31
2022/10/04 08:03:54;;;;;;;5.45;1.30;;;17.60;99.90;;;;;;2603147;54;20943;31
2022/10/04 08:06:34;;;;;;;;;;;17.50;99.90;;;;;;2603364;54;20030;31
2022/10/04 08:09:23;;;;;;;10.73;1.30;;;17.60;99.90;;;;;;2621950;46;19961;31
2022/10/04 08:12:04;;;;;;;7.45;1.30;;;17.90;99.90;;;;;;2602890;54;20108;31
2022/10/04 08:14:55;;;;;;;10.73;1.90;;;18.00;99.90;;;;;;2603211;54;20041;31
2022/10/04 08:18:05;;;;;;;7.97;1.27;;;18.10;99.90;;;;;;2603326;54;20038;31
2022/10/04 08:23:49;;;;;;;10.37;1.17;;;17.70;99.90;;;;;;2602613;54;20947;31
2022/10/04 08:26:31;;;;;;;8.02;1.40;;;17.70;99.90;;;;;;2603006;54;20049;31
2022/10/04 08:32:09;;;;;;;7.15;1.50;;;17.20;99.90;;;;;;2603001;54;20026;31
2022/10/04 08:34:54;;;;;;;8.55;2.35;;;16.90;99.90;;;;;;2603151;54;20865;31
2022/10/04 08:37:34;;;;;;;4.25;1.00;;;17.10;99.90;;;;;;2602993;54;20949;31
2022/10/04 08:40:32;;;;;;;10.10;1.50;;;17.40;99.90;;;;;;2602961;54;20081;31
2022/10/04 08:43:39;;;;;;;8.30;1.80;;;17.40;99.90;;;;;;2603270;54;20030;31
2022/10/04 08:46:39;;;;;;;9.85;2.05;;;17.00;99.90;;;;;;2602701;54;20936;31
2022/10/04 08:49:36;;;;;;;8.55;1.35;;;16.80;99.90;;;;;;2603107;54;20887;31
2022/10/04 08:52:32;;;;;;;8.60;1.77;;;17.00;99.90;;;;;;2602948;54;20038;31
2022/10/04 08:58:08;;;;;;;8.45;1.95;;;17.60;99.90;;;;;;2612427;47;20928;31
2022/10/04 09:01:13;;;;;;;9.85;1.60;;;18.00;99.90;;;;;;2603032;54;20939;31
2022/10/04 09:04:30;;;;;;;7.75;1.30;;;18.20;99.90;;;;;;2608733;47;20888;31
2022/10/04 09:07:10;;;;;;;7.28;1.83;;;18.10;99.90;;;;;;2609927;47;20963;31
2022/10/04 09:10:17;;;;;;;6.75;1.50;;;18.20;99.90;;;;;;2603009;54;20842;31
2022/10/04 09:13:04;;;;;;;9.82;1.55;;;18.30;99.90;;;;;;2602834;54;20950;31
2022/10/04 09:15:46;;;;;;;8.48;1.20;;;18.50;99.90;;;;;;2603052;54;20030;31
2022/10/04 09:18:35;;;;;;;7.95;1.40;;;18.20;99.90;;;;;;2602728;54;20133;31
2022/10/04 09:21:13;;;;;;;9.80;1.50;;;18.10;99.90;;;;;;2602989;54;20030;31
2022/10/04 09:24:14;;;;;;;6.57;1.27;;;18.20;99.90;;;;;;2602840;54;20099;31
2022/10/04 09:26:51;;;;;;;3.90;0.95;;;18.70;99.90;;;;;;2603118;54;20030;31
2022/10/04 09:29:51;;;;;;;6.75;0.82;;;18.80;99.90;;;;;;2602976;54;20027;31
2022/10/04 09:32:48;;;;;;;5.15;1.17;;;18.80;99.90;;;;;;2621671;47;20044;31
2022/10/04 09:35:52;;;;;;;6.35;1.15;;;19.10;99.90;;;;;;2602830;54;20038;31
2022/10/04 09:38:53;;;;;;;6.07;1.10;;;18.90;99.90;;;;;;2602884;54;20813;31
2022/10/04 09:42:08;;;;;;;3.80;1.27;;;18.90;99.90;;;;;;2602788;54;19941;31
2022/10/04 09:44:44;;;;;;;4.20;1.10;;;18.50;99.90;;;;;;2602944;54;20802;31
2022/10/04 09:47:36;;;;;;;6.90;1.20;;;18.10;99.90;;;;;;2602913;54;20128;31
2022/10/04 09:50:34;;;;;;;5.95;1.00;;;18.00;99.90;;;;;;2602492;54;20034;31
2022/10/04 09:56:07;;;;;;;5.30;1.00;;;18.10;99.90;;;;;;2602845;54;20100;31
2022/10/04 09:58:59;;;;;;;4.82;0.80;;;17.90;99.90;;;;;;2603213;54;20022;31
2022/10/04 10:01:36;;;;;;;4.45;1.10;;;17.80;99.90;;;;;;2604207;46;20019;31
2022/10/04 10:04:23;;;;;;;11.30;1.38;;;17.60;99.90;;;;;;2603809;54;20841;31
2022/10/04 10:06:57;;;;;;;;;;;17.40;99.90;;;;;;2603975;54;20027;31
2022/10/04 10:15:46;;;;;;;7.30;1.10;;;17.40;99.90;;;;;;2603713;54;20038;31
2022/10/04 10:18:28;;;;;;;4.50;1.35;;;17.70;99.90;;;;;;2603689;54;20022;31
2022/10/04 10:21:28;;;;;;;6.17;1.27;;;17.90;99.90;;;;;;2603621;54;20026;31
2022/10/04 10:24:29;;;;;;;4.35;1.05;;;17.90;99.90;;;;;;2603495;54;20971;31
2022/10/04 10:27:10;;;;;;;5.60;1.40;;;17.50;99.90;;;;;;2603525;54;20842;31
2022/10/04 10:30:29;;;;;;;5.80;1.30;;;17.30;99.90;;;;;;2603497;54;20026;31
2022/10/04 10:33:53;;;;;;;4.15;1.08;;;17.00;99.90;;;;;;2603815;54;20045;31
2022/10/04 10:36:49;;;;;;;5.35;1.17;;;17.10;99.90;;;;;;2603357;54;20165;31
2022/10/04 10:39:44;;;;;;;7.53;1.85;;;17.30;99.90;;;;;;2603463;54;20038;31
2022/10/04 10:42:18;;;;;;;5.80;1.13;;;17.40;99.90;;;;;;2603500;54;20077;31
2022/10/04 10:45:21;;;;;;;6.57;1.33;;;17.60;99.90;;;;;;2608803;46;20101;31
2022/10/04 10:48:00;;;;;;;5.65;1.00;;;17.80;99.90;;;;;;2603187;54;20077;31
2022/10/04 10:51:02;;;;;;;6.00;1.05;;;18.10;99.90;;;;;;2603310;54;20031;31
2022/10/04 10:54:09;;;;;;;2.17;0.97;;;18.00;99.90;;;;;;2603532;54;20033;31
2022/10/04 10:57:02;;;;;;;3.25;1.20;;;17.70;99.90;;;;;;2603436;54;20054;31
2022/10/04 10:59:49;;;;;;;5.35;0.90;;;17.40;99.90;;;;;;2603274;54;20037;31
2022/10/04 11:02:41;;;;;;;4.60;1.10;;;17.10;99.90;;;;;;2603376;54;20809;31
2022/10/04 11:05:23;;;;;;;4.50;1.20;;;16.90;99.90;;;;;;2603308;54;20049;31
2022/10/04 11:07:58;;;;;;;7.53;1.30;;;17.10;99.90;;;;;;2603128;54;20104;31
2022/10/04 11:11:12;;;;;;;2.00;0.85;;;17.20;99.90;;;;;;2603192;54;21003;31
2022/10/04 11:16:35;;;;;;;2.70;0.70;;;17.40;99.90;;;;;;2603346;54;20967;31
2022/10/04 11:20:01;;;;;;;3.95;1.00;;;17.50;99.90;;;;;;2603628;54;20037;31
2022/10/04 11:22:59;;;;;;;2.85;0.90;;;17.60;99.90;;;;;;2603187;54;20951;31
2022/10/04 11:25:54;;;;;;;4.28;0.70;;;17.70;99.90;;;;;;2621892;46;20038;31
2022/10/04 11:28:34;;;;;;;5.65;1.13;;;17.70;99.90;;;;;;2603404;54;19942;31
2022/10/04 11:31:39;;;;;;;4.55;0.70;;;17.70;99.90;;;;;;2603402;54;19990;31
2022/10/04 11:34:48;;;;;;;6.50;0.85;;;17.50;99.90;;;;;;2603056;54;20915;31
2022/10/04 11:37:37;;;;;;;6.40;0.85;;;17.40;99.90;;;;;;2603077;54;20941;31
2022/10/04 11:40:30;;;;;;;5.70;1.15;;;17.20;99.90;;;;;;2603430;54;20900;31
2022/10/04 11:43:18;;;;;;;5.75;1.00;;;17.10;99.90;;;;;;2603240;54;20840;31
2022/10/04 11:46:09;;;;;;;4.30;0.90;;;17.10;99.90;;;;;;2603504;54;20030;31
2022/10/04 11:48:52;;;;;;;5.00;1.20;;;17.10;99.90;;;;;;2603235;54;20029;31
2022/10/04 11:51:57;;;;;;;5.75;0.95;;;17.10;99.90;;;;;;2603189;54;20034;31
2022/10/04 11:55:08;;;;;;;7.17;1.43;;;17.00;99.90;;;;;;2603322;54;20089;31
2022/10/04 11:57:44;;;;;;;;;;;16.80;99.90;;;;;;2603187;54;21911;31
2022/10/04 12:00:21;;;;;;;6.15;2.05;;;16.70;99.90;;;;;;2613076;46;20030;31
2022/10/04 12:03:30;;;;;;;7.97;1.40;;;16.60;99.90;;;;;;2621855;46;20034;31
2022/10/04 12:06:24;;;;;;;4.85;1.05;;;16.60;99.90;;;;;;2602878;54;20799;31
2022/10/04 12:09:05;;;;;;;3.53;0.80;;;16.60;99.90;;;;;;2603162;54;20084;31
2022/10/04 12:14:23;;;;;;;4.20;0.88;;;16.70;99.90;;;;;;2603177;54;20029;31
2022/10/04 12:17:37;;;;;;;4.05;0.70;;;16.80;99.90;;;;;;2603380;54;20029;31
2022/10/04 12:20:38;;;;;;;6.10;1.25;;;16.90;99.90;;;;;;2602975;54;20030;31
2022/10/04 12:23:43;;;;;;;3.85;1.20;;;16.90;99.90;;;;;;2603083;54;20100;31
2022/10/04 12:29:06;;;;;;;5.70;1.10;;;17.00;99.90;;;;;;2603290;54;21092;31
2022/10/04 12:31:46;;;;;;;6.25;1.65;;;17.10;99.90;;;;;;2603229;54;20038;31
2022/10/04 12:34:30;;;;;;;3.92;0.80;;;17.00;99.90;;;;;;2621848;46;20792;31
2022/10/04 12:37:27;;;;;;;5.50;1.57;;;17.00;99.90;;;;;;2603152;54;20829;31
2022/10/04 12:40:15;;;;;;;1.40;0.55;;;17.00;99.90;;;;;;2603200;54;20860;31
2022/10/04 12:42:53;;;;;;;3.17;0.63;;;16.90;99.90;;;;;;2603446;54;20153;31
2022/10/04 12:45:34;;;;;;;7.05;1.52;;;16.90;99.90;;;;;;2603207;54;20104;31
2022/10/04 12:48:42;;;;;;;6.55;1.05;;;16.90;99.90;;;;;;2603176;54;20967;31
2022/10/04 12:51:26;;;;;;;;;;;16.80;99.90;;;;;;2603165;54;20069;31
2022/10/04 12:54:05;;;;;;;3.00;1.25;;;16.80;99.90;;;;;;2617413;47;20009;31
2022/10/04 12:56:47;;;;;;;4.93;0.90;;;16.80;99.90;;;;;;2603028;54;20085;31
2022/10/04 12:59:45;;;;;;;5.30;0.90;;;16.80;99.90;;;;;;2603210;54;20108;31
2022/10/04 13:02:34;;;;;;;4.07;1.00;;;16.70;99.90;;;;;;2621233;47;20859;31
2022/10/04 13:05:16;;;;;;;4.90;1.10;;;16.70;99.90;;;;;;2602978;54;20869;31
2022/10/04 13:08:12;;;;;;;9.30;1.65;;;16.70;99.90;;;;;;2602964;54;20940;31
2022/10/04 13:10:59;;;;;;;2.95;0.95;;;16.70;99.90;;;;;;2603183;54;20919;31
2022/10/04 13:13:53;;;;;;;5.72;1.20;;;16.70;99.90;;;;;;2602997;54;20022;31
2022/10/04 13:16:31;;;;;;;5.25;1.05;;;16.60;99.90;;;;;;2621600;47;20872;31
2022/10/04 13:19:30;;;;;;;4.20;1.10;;;16.60;99.90;;;;;;2602905;54;20860;31
2022/10/04 13:22:17;;;;;;;5.63;1.15;;;16.70;99.90;;;;;;2602833;54;20022;31
2022/10/04 13:25:25;;;;;;;5.25;1.45;;;16.60;99.90;;;;;;2602841;54;20022;31
2022/10/04 13:28:01;;;;;;;5.75;1.10;;;16.70;99.90;;;;;;2602604;54;20118;31
2022/10/04 13:30:39;;;;;;;4.80;0.70;;;16.70;99.90;;;;;;2602848;54;20026;31
2022/10/04 13:33:17;;;;;;;4.40;0.80;;;16.70;99.90;;;;;;2603361;54;20271;31
2022/10/04 13:35:54;;;;;;;4.35;1.20;;;16.70;99.90;;;;;;2603746;54;20037;31
2022/10/04 13:38:43;;;;;;;3.70;0.70;;;16.70;99.90;;;;;;2603664;54;20909;31
2022/10/04 13:41:29;;;;;;;6.80;1.30;;;16.60;99.90;;;;;;2622193;46;20818;31
2022/10/04 13:44:22;;;;;;;5.60;1.15;;;16.40;99.90;;;;;;2603772;54;20022;31
2022/10/04 13:47:07;;;;;;;4.75;1.45;;;16.30;99.90;;;;;;2603726;54;20856;31
2022/10/04 13:49:42;;;;;;;3.47;0.80;;;16.20;99.90;;;;;;2603618;54;20869;31
2022/10/04 13:58:27;;;;;;;4.70;1.17;;;16.20;99.90;;;;;;2603451;54;20034;31
2022/10/04 14:01:23;;;;;;;5.30;1.02;;;16.20;99.90;;;;;;2603681;54;20085;31
2022/10/04 14:04:06;;;;;;;3.45;1.25;;;16.20;99.90;;;;;;2603748;54;20050;31
2022/10/04 14:07:01;;;;;;;3.15;1.10;;;16.20;99.90;;;;;;2603604;54;20050;31
2022/10/04 14:09:46;;;;;;;6.00;1.20;;;16.20;99.90;;;;;;2603445;54;20085;31
2022/10/04 14:12:31;;;;;;;3.70;0.85;;;16.30;99.90;;;;;;2603643;54;20803;31
2022/10/04 14:15:31;;;;;;;2.75;0.55;;;16.30;99.90;;;;;;2603561;54;20035;31
2022/10/04 14:20:59;;;;;;;3.50;0.85;;;16.40;99.90;;;;;;2603598;54;20809;31
2022/10/04 14:24:12;;;;;;;5.28;0.82;;;16.40;99.90;;;;;;2603809;54;20034;31
2022/10/04 14:27:03;;;;;;;3.88;0.90;;;16.40;99.90;;;;;;2603268;54;20036;31
2022/10/04 14:29:55;;;;;;;3.17;0.80;;;16.40;99.90;;;;;;2603488;54;20022;31
2022/10/04 14:32:30;;;;;;;4.05;1.13;;;16.40;99.90;;;;;;2603605;54;20026;31
2022/10/04 14:35:10;;;;;;;4.50;0.77;;;16.30;99.90;;;;;;2603649;54;20027;31
2022/10/04 14:38:10;;;;;;;4.40;0.80;;;16.10;99.90;;;;;;2603743;54;20895;31
2022/10/04 14:41:13;;;;;;;5.28;0.80;;;16.10;99.90;;;;;;2621811;46;20827;31
2022/10/04 14:44:18;;;;;;;5.40;1.05;;;16.00;99.90;;;;;;2603276;54;20081;31
2022/10/04 14:46:57;;;;;;;3.53;0.88;;;15.90;99.90;;;;;;2603380;54;20109;31
2022/10/04 14:49:32;;;;;;;5.85;0.88;;;15.90;99.90;;;;;;2603398;54;20037;31
2022/10/04 14:52:18;;;;;;;4.38;0.80;;;15.80;99.90;;;;;;2603539;54;20057;31
2022/10/04 14:54:55;;;;;;;4.15;0.80;;;15.70;99.90;;;;;;2603384;54;20026;31
2022/10/04 14:57:50;;;;;;;3.70;1.00;;;15.70;99.90;;;;;;2603565;54;20061;31
2022/10/04 15:00:30;;;;;;;5.60;1.20;;;15.60;99.90;;;;;;2603510;54;20822;31
2022/10/04 15:03:27;;;;;;;4.03;0.70;;;15.60;99.90;;;;;;2603293;54;20029;31
2022/10/04 15:06:12;;;;;;;3.80;0.82;;;15.50;99.90;;;;;;2603538;54;20026;31
2022/10/04 15:09:18;;;;;;;3.38;1.00;;;15.50;99.90;;;;;;2603244;54;20046;31
2022/10/04 15:11:56;;;;;;;3.17;0.77;;;15.50;99.90;;;;;;2603251;54;20022;31
2022/10/04 15:15:25;;;;;;;4.97;1.13;;;15.50;99.90;;;;;;2603464;54;20049;31